Hozan Maru — JL6681 — position and weather

sailwx.info

Track history (hours):
 
Tides and Currents Weather Stations Pressure Air Temp Water Temp Dewpoint Dewpoint Depression Visibility Wind Speed Wind Dir Waves Ship Positions

Hozan Maru

Last reported at 2018-Feb-19 13:59 UTC. Time now 2018-Feb-19 14:17 UTC.
Position N 34°44' E 134°46'.

Length 70 m; draft 4.8 m.

Type: Tanker. MMSI: 431501711.

Date/timePositionNaut miles runAvg speedWind from/ knotsBaromVisibWave heightAir tempDewpointWater temp
2018-Feb-19 13:59N 34°44' E 134°46'0 0.0
2018-Feb-19 13:24N 34°44' E 134°46'0 0.0
2018-Feb-19 12:52N 34°44' E 134°46'1 2.1
2018-Feb-19 12:30N 34°44' E 134°45'612.6
2018-Feb-19 12:00N 34°39' E 134°51'713.4
2018-Feb-19 11:30N 34°38' E 134°58'612.6
2018-Feb-19 11:00N 34°36' E 135°06'612.4
2018-Feb-19 10:31N 34°36' E 135°13'612.1
2018-Feb-19 10:00N 34°34' E 135°20'5 9.5
2018-Feb-19 09:30N 34°34' E 135°26'0 0.0
2018-Feb-19 09:00N 34°34' E 135°26'0 0.0
2018-Feb-19 08:30N 34°34' E 135°26'0 0.0
2018-Feb-19 08:00N 34°34' E 135°26'0 0.0
2018-Feb-19 07:30N 34°34' E 135°26'0 0.0
2018-Feb-19 07:00N 34°34' E 135°26'0 0.0
2018-Feb-19 06:30N 34°34' E 135°26'0 0.0
2018-Feb-19 06:00N 34°34' E 135°26'4 7.4
2018-Feb-19 05:30N 34°33' E 135°22'612.5
2018-Feb-19 05:00N 34°34' E 135°14'713.6
2018-Feb-19 04:30N 34°35' E 135°06'612.9
2018-Feb-19 04:00N 34°37' E 134°59'612.3
2018-Feb-19 03:30N 34°39' E 134°51'713.1
2018-Feb-19 03:00N 34°43' E 134°46'2 5.0
2018-Feb-19 02:31N 34°46' E 134°46'0 0.0
2018-Feb-19 02:00N 34°46' E 134°46'0 0.0
2018-Feb-19 01:30N 34°46' E 134°46'0 0.0
2018-Feb-19 01:00N 34°46' E 134°46'0 0.0
2018-Feb-19 00:25N 34°46' E 134°46'0 0.0
2018-Feb-19 00:00N 34°46' E 134°46'0 0.0
2018-Feb-18 23:30N 34°46' E 134°46'0 0.0
2018-Feb-18 23:00N 34°46' E 134°46'0 0.0
2018-Feb-18 22:30N 34°46' E 134°46'1 3.0
2018-Feb-18 22:00N 34°44' E 134°46'0 0.1
2018-Feb-18 21:25N 34°44' E 134°46'0 0.0
2018-Feb-18 20:57N 34°44' E 134°46'0 0.0
2018-Feb-18 20:29N 34°44' E 134°46'0 0.0
2018-Feb-18 19:59N 34°44' E 134°46'0 0.0
2018-Feb-18 19:30N 34°44' E 134°46'0 0.0
2018-Feb-18 18:59N 34°44' E 134°46'0 0.0
2018-Feb-18 18:29N 34°44' E 134°46'0 0.0
2018-Feb-18 17:56N 34°44' E 134°46'0 0.0
2018-Feb-18 17:28N 34°44' E 134°46'0 0.0
2018-Feb-18 16:58N 34°44' E 134°46'0 0.1
2018-Feb-18 16:30N 34°44' E 134°46'0 0.0
2018-Feb-18 16:00N 34°44' E 134°46'0 0.0
2018-Feb-18 15:30N 34°44' E 134°46'0 0.0
2018-Feb-18 15:00N 34°44' E 134°46'0 0.0
2018-Feb-18 14:30N 34°44' E 134°46'0 0.0
2018-Feb-18 14:00N 34°44' E 134°46'0 0.0
2018-Feb-18 13:30N 34°44' E 134°46'0 0.0
2018-Feb-18 13:00N 34°44' E 134°46'0 0.0
2018-Feb-18 12:30N 34°44' E 134°46'0 0.0
2018-Feb-18 12:00N 34°44' E 134°46'0 0.0
2018-Feb-18 11:30N 34°44' E 134°46'0 0.0
2018-Feb-18 10:59N 34°44' E 134°46'0 0.1
2018-Feb-18 10:19N 34°44' E 134°46'0 0.0
2018-Feb-18 09:56N 34°44' E 134°46'0 0.0
2018-Feb-18 09:30N 34°44' E 134°46'0 0.0
2018-Feb-18 09:00N 34°44' E 134°46'0 0.0
2018-Feb-18 08:30N 34°44' E 134°46'0 0.0
2018-Feb-18 08:00N 34°44' E 134°46'0 0.0
2018-Feb-18 07:30N 34°44' E 134°46'0 0.0
2018-Feb-18 07:00N 34°44' E 134°46'3 5.4
2018-Feb-18 06:29N 34°42' E 134°47'510.7
2018-Feb-18 06:00N 34°38' E 134°52'5 9.5
2018-Feb-18 05:30N 34°37' E 134°57'510.0
2018-Feb-18 05:01N 34°36' E 135°03'612.0
2018-Feb-18 04:30N 34°36' E 135°11'612.5
2018-Feb-18 04:00N 34°35' E 135°18'612.3
2018-Feb-18 03:30N 34°33' E 135°25'0 0.8
2018-Feb-18 03:00N 34°33' E 135°26'0 0.0
2018-Feb-18 02:31N 34°33' E 135°26'0 0.0
2018-Feb-18 02:00N 34°33' E 135°26'0 0.0
2018-Feb-18 01:30N 34°33' E 135°26'0 0.0
2018-Feb-18 01:01N 34°33' E 135°26'0 0.0
2018-Feb-18 00:29N 34°33' E 135°26'0 0.0
2018-Feb-18 00:00N 34°33' E 135°26'0 0.0
2018-Feb-17 23:30N 34°33' E 135°26'2 3.6
2018-Feb-17 23:00N 34°33' E 135°23'3 5.1
2018-Feb-17 22:30N 34°31' E 135°25'0 0.0
2018-Feb-17 22:00N 34°31' E 135°25'0 0.0
2018-Feb-17 21:31N 34°31' E 135°25'0 0.0
2018-Feb-17 21:00N 34°31' E 135°25'0 0.0
2018-Feb-17 20:30N 34°31' E 135°25'0 0.0
2018-Feb-17 20:00N 34°31' E 135°25'0 0.0
2018-Feb-17 19:30N 34°31' E 135°25'0 0.0
2018-Feb-17 19:00N 34°31' E 135°25'0 0.0
2018-Feb-17 18:29N 34°31' E 135°25'0 0.0
2018-Feb-17 18:01N 34°31' E 135°25'0 0.0
2018-Feb-17 17:30N 34°31' E 135°25'0 0.0
2018-Feb-17 17:00N 34°31' E 135°25'0 0.0
2018-Feb-17 16:30N 34°31' E 135°25'0 0.0
2018-Feb-17 16:00N 34°31' E 135°25'0 0.0
2018-Feb-17 15:30N 34°31' E 135°25'0 0.0
2018-Feb-17 15:00N 34°31' E 135°25'0 0.0
2018-Feb-17 14:30N 34°31' E 135°25'0 0.0
2018-Feb-17 14:00N 34°31' E 135°25'0 0.0
2018-Feb-17 13:30N 34°31' E 135°25'0 0.0
2018-Feb-17 13:00N 34°31' E 135°25'0 0.0
2018-Feb-17 12:30N 34°31' E 135°25'0 0.0
2018-Feb-17 12:00N 34°31' E 135°25'0 0.0
2018-Feb-17 11:31N 34°31' E 135°25'0 0.0
2018-Feb-17 11:00N 34°31' E 135°25'0 0.0
2018-Feb-17 10:30N 34°31' E 135°25'0 0.0
2018-Feb-17 10:00N 34°31' E 135°25'0 0.0
2018-Feb-17 09:30N 34°31' E 135°25'0 0.0
2018-Feb-17 08:58N 34°31' E 135°25'0 0.0
2018-Feb-17 08:30N 34°31' E 135°25'0 0.0
2018-Feb-17 08:00N 34°31' E 135°25'0 0.0
2018-Feb-17 07:31N 34°31' E 135°25'0 0.0
2018-Feb-17 07:01N 34°31' E 135°25'0 0.0
2018-Feb-17 06:31N 34°31' E 135°25'0 0.0
2018-Feb-17 06:00N 34°31' E 135°25'0 0.0
2018-Feb-17 05:30N 34°31' E 135°25'0 0.6
2018-Feb-17 05:00N 34°31' E 135°24'611.7
2018-Feb-17 04:30N 34°33' E 135°18'713.6
2018-Feb-17 04:00N 34°34' E 135°10'713.7
2018-Feb-17 03:30N 34°36' E 135°02'713.2
2018-Feb-17 03:00N 34°37' E 134°54'713.7
2018-Feb-17 02:30N 34°41' E 134°47'4 8.5
2018-Feb-17 02:00N 34°46' E 134°46'0 0.0
2018-Feb-17 01:29N 34°46' E 134°46'0 0.0
2018-Feb-17 01:00N 34°46' E 134°46'0 0.0
2018-Feb-17 00:30N 34°46' E 134°46'0 0.0
2018-Feb-17 00:00N 34°46' E 134°46'0 0.0
2018-Feb-16 23:30N 34°46' E 134°46'0 0.0
2018-Feb-16 22:56N 34°46' E 134°46'0 0.0
2018-Feb-16 22:30N 34°46' E 134°46'1 2.8
2018-Feb-16 22:00N 34°44' E 134°46'0 0.0
2018-Feb-16 21:30N 34°44' E 134°46'0 0.0
2018-Feb-16 21:00N 34°44' E 134°46'0 0.0
2018-Feb-16 20:30N 34°44' E 134°46'0 0.0
2018-Feb-16 18:42N 34°44' E 134°46'0 0.0
2018-Feb-16 18:23N 34°44' E 134°46'0 0.0
2018-Feb-16 17:57N 34°44' E 134°46'0 0.0
2018-Feb-16 17:30N 34°44' E 134°46'0 0.0
2018-Feb-16 17:00N 34°44' E 134°46'0 0.0
2018-Feb-16 16:30N 34°44' E 134°46'0 0.0
2018-Feb-16 15:56N 34°44' E 134°46'0 0.0
2018-Feb-16 15:30N 34°44' E 134°46'0 0.0
2018-Feb-16 14:58N 34°44' E 134°46'0 0.1
2018-Feb-16 14:25N 34°44' E 134°46'2 4.5
2018-Feb-16 14:00N 34°42' E 134°46'612.1
2018-Feb-16 13:30N 34°38' E 134°52'713.2
2018-Feb-16 13:00N 34°38' E 134°60'713.2
2018-Feb-16 12:30N 34°36' E 135°07'612.6
2018-Feb-16 12:00N 34°36' E 135°15'612.4
2018-Feb-16 11:30N 34°34' E 135°22'3 6.5
2018-Feb-16 11:00N 34°34' E 135°26'0 0.0
2018-Feb-16 10:30N 34°34' E 135°26'0 0.0
2018-Feb-16 10:00N 34°34' E 135°26'0 0.0
2018-Feb-16 09:30N 34°34' E 135°26'0 0.0
2018-Feb-16 09:00N 34°34' E 135°26'0 0.0
2018-Feb-16 08:30N 34°34' E 135°26'0 0.0
2018-Feb-16 08:00N 34°34' E 135°26'0 0.0
2018-Feb-16 07:30N 34°34' E 135°26'0 0.0
2018-Feb-16 07:00N 34°34' E 135°26'0 0.2
2018-Feb-16 06:30N 34°33' E 135°26'3 6.5
2018-Feb-16 06:00N 34°33' E 135°22'2 4.8
2018-Feb-16 05:30N 34°32' E 135°20'0 0.0
2018-Feb-16 05:00N 34°32' E 135°20'0 0.0
2018-Feb-16 04:30N 34°32' E 135°20'0 0.1
2018-Feb-16 04:00N 34°32' E 135°20'510.7
2018-Feb-16 03:30N 34°34' E 135°13'612.9
2018-Feb-16 03:00N 34°35' E 135°06'612.5
2018-Feb-16 02:30N 34°37' E 134°59'611.9
2018-Feb-16 02:00N 34°38' E 134°51'712.9
2018-Feb-16 01:30N 34°43' E 134°46'3 5.4
2018-Feb-16 01:00N 34°46' E 134°46'0 0.0
2018-Feb-16 00:31N 34°46' E 134°46'0 0.0
2018-Feb-16 00:00N 34°46' E 134°46'0 0.0
2018-Feb-15 23:31N 34°46' E 134°46'0 0.0
2018-Feb-15 23:01N 34°46' E 134°46'0 0.0
2018-Feb-15 22:30N 34°46' E 134°46'2 3.0
2018-Feb-15 22:00N 34°44' E 134°46'0 0.0
2018-Feb-15 20:20N 34°44' E 134°46'0 0.1
2018-Feb-15 19:35N 34°44' E 134°46'0 0.1
2018-Feb-15 19:30N 34°44' E 134°46'0 0.0
2018-Feb-15 18:51N 34°44' E 134°46'0 0.0
2018-Feb-15 18:30N 34°44' E 134°46'0 0.0
2018-Feb-15 18:00N 34°44' E 134°46'0 0.0
2018-Feb-15 17:30N 34°44' E 134°46'0 0.0
2018-Feb-15 16:55N 34°44' E 134°46'0 0.0
2018-Feb-15 16:24N 34°44' E 134°46'0 0.0
2018-Feb-15 16:00N 34°44' E 134°46'0 0.0
2018-Feb-15 15:13N 34°44' E 134°46'0 0.2
2018-Feb-15 14:53N 34°44' E 134°46'0 0.7
2018-Feb-15 14:20N 34°44' E 134°46'411.1
2018-Feb-15 14:01N 34°41' E 134°48'611.9
2018-Feb-15 13:31N 34°37' E 134°54'612.7
2018-Feb-15 13:00N 34°37' E 135°02'510.5
2018-Feb-15 12:30N 34°32' E 135°04'612.7
2018-Feb-15 12:01N 34°26' E 135°03'612.5
2018-Feb-15 11:30N 34°20' E 135°01'611.9
2018-Feb-15 11:00N 34°14' E 135°01'612.2
2018-Feb-15 10:30N 34°10' E 135°05'3 6.5
2018-Feb-15 10:00N 34°07' E 135°07'0 0.0
2018-Feb-15 09:30N 34°07' E 135°07'0 0.0
2018-Feb-15 09:00N 34°07' E 135°07'0 0.0
2018-Feb-15 08:30N 34°07' E 135°07'0 0.0
2018-Feb-15 08:00N 34°07' E 135°07'1 1.2
2018-Feb-15 07:30N 34°08' E 135°08'0 0.2
2018-Feb-15 07:01N 34°07' E 135°07'0 0.1
2018-Feb-15 06:30N 34°07' E 135°08'1 1.1
2018-Feb-15 06:00N 34°08' E 135°07'713.3
2018-Feb-15 05:30N 34°13' E 135°01'611.9
2018-Feb-15 05:00N 34°18' E 134°58'613.0
2018-Feb-15 04:31N 34°24' E 135°00'714.0
2018-Feb-15 04:01N 34°31' E 135°02'612.1
2018-Feb-15 03:30N 34°37' E 135°00'713.4
2018-Feb-15 03:00N 34°38' E 134°52'713.9
2018-Feb-15 02:29N 34°43' E 134°45'3 5.3
2018-Feb-15 02:00N 34°46' E 134°46'0 0.0
2018-Feb-15 01:28N 34°46' E 134°46'0 0.0
2018-Feb-15 00:58N 34°46' E 134°46'0 0.0
2018-Feb-15 00:30N 34°46' E 134°46'0 0.0
2018-Feb-15 00:00N 34°46' E 134°46'0 0.0
2018-Feb-14 23:30N 34°46' E 134°46'0 0.0
2018-Feb-14 22:58N 34°46' E 134°46'0 0.0
2018-Feb-14 22:30N 34°46' E 134°46'1 2.9
2018-Feb-14 22:00N 34°44' E 134°46'0 0.0
2018-Feb-14 21:30N 34°44' E 134°46'0 0.0
2018-Feb-14 20:13N 34°44' E 134°46'0 0.1
2018-Feb-14 20:00N 34°44' E 134°46'0 0.1
2018-Feb-14 19:30N 34°44' E 134°46'0 0.0
2018-Feb-14 18:27N 34°44' E 134°46'0 0.0
2018-Feb-14 17:56N 34°44' E 134°46'0 0.0
2018-Feb-14 17:30N 34°44' E 134°46'0 0.0
2018-Feb-14 17:00N 34°44' E 134°46'0 0.0
2018-Feb-14 16:29N 34°44' E 134°46'0 0.0
2018-Feb-14 16:00N 34°44' E 134°46'0 0.0
2018-Feb-14 15:29N 34°44' E 134°46'0 0.0
2018-Feb-14 14:59N 34°44' E 134°46'0 0.0
2018-Feb-14 14:29N 34°44' E 134°46'3 6.1
2018-Feb-14 14:00N 34°43' E 134°43'1112.3
2018-Feb-14 13:08N 34°42' E 134°30'212.2
2018-Feb-14 12:59N 34°42' E 134°28'612.0
2018-Feb-14 12:30N 34°39' E 134°22'1211.8
2018-Feb-14 11:31N 34°33' E 134°10'011.0
2018-Feb-14 11:30N 34°33' E 134°09'72 6.0
2018-Feb-13 23:38N 34°03' E 132°50'513.8
2018-Feb-13 23:16N 34°00' E 132°45'414.7
2018-Feb-13 22:59N 33°56' E 132°43'5 0.2
2018-Feb-12 22:28N 33°52' E 132°42'2 2.0
2018-Feb-12 21:37N 33°52' E 132°40'0 0.0
2018-Feb-12 21:29N 33°52' E 132°40'0 0.0
2018-Feb-12 21:00N 33°52' E 132°40'0 0.0
2018-Feb-12 20:30N 33°52' E 132°40'0 0.0
2018-Feb-12 20:01N 33°52' E 132°40'0 0.0
2018-Feb-12 19:30N 33°51' E 132°40'0 0.0
2018-Feb-12 18:59N 33°52' E 132°40'0 0.0
2018-Feb-12 18:30N 33°52' E 132°40'0 0.0
2018-Feb-12 17:58N 33°52' E 132°40'0 0.0
2018-Feb-12 17:31N 33°52' E 132°40'0 0.0
2018-Feb-12 17:00N 33°52' E 132°40'0 0.0
2018-Feb-12 16:30N 33°52' E 132°40'0 0.0
2018-Feb-12 16:00N 33°52' E 132°40'0 0.0
2018-Feb-12 15:30N 33°52' E 132°40'0 0.0
2018-Feb-12 15:00N 33°52' E 132°40'0 0.0
2018-Feb-12 14:31N 33°52' E 132°40'0 0.0
2018-Feb-12 13:57N 33°51' E 132°40'0 0.1
2018-Feb-12 13:31N 33°52' E 132°40'0 0.0
2018-Feb-12 13:00N 33°52' E 132°40'4 7.3
2018-Feb-12 12:26N 33°55' E 132°42'7311.3
2018-Feb-12 05:59N 34°27' E 134°02'1911.6
2018-Feb-12 04:18N 34°39' E 134°20'412.3
2018-Feb-12 03:59N 34°41' E 134°24'612.0
2018-Feb-12 03:28N 34°43' E 134°31'612.4
2018-Feb-12 03:00N 34°43' E 134°38'611.9
2018-Feb-12 02:30N 34°44' E 134°45'2 4.2
2018-Feb-12 02:00N 34°46' E 134°46'0 0.0
2018-Feb-12 01:30N 34°46' E 134°46'0 0.0
2018-Feb-12 01:00N 34°46' E 134°46'0 0.0
2018-Feb-12 00:30N 34°46' E 134°46'0 0.0
2018-Feb-12 00:00N 34°46' E 134°46'0 0.0
2018-Feb-11 23:30N 34°46' E 134°46'0 0.0
2018-Feb-11 22:56N 34°46' E 134°46'0 0.0
2018-Feb-11 22:30N 34°46' E 134°46'1 2.9
2018-Feb-11 22:00N 34°44' E 134°46'0 0.0
2018-Feb-11 21:30N 34°44' E 134°46'0 0.0
2018-Feb-11 21:00N 34°44' E 134°46'0 0.0
2018-Feb-11 20:30N 34°44' E 134°46'0 0.0
2018-Feb-11 20:00N 34°44' E 134°46'0 0.0
2018-Feb-11 19:30N 34°44' E 134°46'0 0.0
2018-Feb-11 18:59N 34°44' E 134°46'0 0.0
2018-Feb-11 18:30N 34°44' E 134°46'0 0.0
2018-Feb-11 18:00N 34°44' E 134°46'0 0.0
2018-Feb-11 17:27N 34°44' E 134°46'0 0.0
2018-Feb-11 17:00N 34°44' E 134°46'0 0.0
2018-Feb-11 16:30N 34°44' E 134°46'0 0.0
2018-Feb-11 16:00N 34°44' E 134°46'0 0.0
2018-Feb-11 15:30N 34°44' E 134°46'0 0.0
2018-Feb-11 15:00N 34°44' E 134°46'0 0.0
2018-Feb-11 14:30N 34°44' E 134°46'0 0.0
2018-Feb-11 14:00N 34°44' E 134°46'3 6.2
2018-Feb-11 13:30N 34°41' E 134°47'510.3
2018-Feb-11 13:00N 34°38' E 134°52'5 9.9
2018-Feb-11 12:29N 34°37' E 134°58'5 9.6
2018-Feb-11 12:00N 34°36' E 135°04'5 9.8
2018-Feb-11 11:31N 34°31' E 135°04'611.8
2018-Feb-11 11:00N 34°25' E 135°02'611.8
2018-Feb-11 10:30N 34°20' E 135°01'510.5
2018-Feb-11 10:00N 34°15' E 135°01'611.1
2018-Feb-11 09:30N 34°10' E 135°05'4 7.3
2018-Feb-11 09:00N 34°07' E 135°08'0 0.0
2018-Feb-11 08:30N 34°07' E 135°08'0 0.0
2018-Feb-11 08:00N 34°07' E 135°08'0 0.0
2018-Feb-11 07:30N 34°07' E 135°08'0 0.0
2018-Feb-11 07:00N 34°07' E 135°08'0 0.0
2018-Feb-11 06:30N 34°07' E 135°08'1 1.1
2018-Feb-11 06:00N 34°07' E 135°07'0 0.1
2018-Feb-11 05:15N 34°07' E 135°07'310.3
2018-Feb-11 05:00N 34°09' E 135°05'713.8
2018-Feb-11 04:30N 34°15' E 135°00'612.9
2018-Feb-11 04:00N 34°21' E 134°60'714.2
2018-Feb-11 03:30N 34°29' E 135°02'714.3
2018-Feb-11 03:00N 34°35' E 135°03'714.1
2018-Feb-11 02:30N 34°37' E 134°55'714.7
2018-Feb-11 02:00N 34°41' E 134°47'4 1.1
2018-Feb-10 21:54N 34°46' E 134°46'2 3.9
2018-Feb-10 21:30N 34°44' E 134°45'0 0.0
2018-Feb-10 20:55N 34°44' E 134°45'0 0.1
2018-Feb-10 20:25N 34°44' E 134°46'0 0.0
2018-Feb-10 19:55N 34°44' E 134°46'0 0.0
2018-Feb-10 19:25N 34°44' E 134°46'0 0.0
2018-Feb-10 18:55N 34°44' E 134°46'0 0.0
2018-Feb-10 18:25N 34°44' E 134°46'0 0.0
2018-Feb-10 17:55N 34°44' E 134°46'0 0.0
2018-Feb-10 17:25N 34°44' E 134°46'0 0.0
2018-Feb-10 16:55N 34°44' E 134°46'0 0.0
2018-Feb-10 16:25N 34°44' E 134°46'0 0.0
2018-Feb-10 15:55N 34°44' E 134°46'0 0.0
2018-Feb-10 15:28N 34°44' E 134°46'0 0.1
2018-Feb-10 14:55N 34°44' E 134°45'0 0.1
2018-Feb-10 14:25N 34°44' E 134°46'0 0.1
2018-Feb-10 13:50N 34°44' E 134°45'3 8.7
2018-Feb-10 13:30N 34°43' E 134°43'2912.8
2018-Feb-10 11:17N 34°33' E 134°10'7811.6
2018-Feb-10 04:34N 34°06' E 132°42'112.3
2018-Feb-10 04:30N 34°06' E 132°41'911.9
2018-Feb-10 03:47N 34°03' E 132°31'412.5
2018-Feb-10 03:27N 34°05' E 132°27'510.5
2018-Feb-10 03:00N 34°09' E 132°30'3 5.7
2018-Feb-10 02:31N 34°12' E 132°29'0 0.0
2018-Feb-10 02:00N 34°12' E 132°29'0 0.0
2018-Feb-10 01:30N 34°12' E 132°29'0 0.0
2018-Feb-10 01:00N 34°12' E 132°29'0 0.0
2018-Feb-10 00:31N 34°12' E 132°29'0 0.0
2018-Feb-09 23:58N 34°12' E 132°29'1 1.3
2018-Feb-09 23:30N 34°12' E 132°30'0 0.0
2018-Feb-09 23:00N 34°12' E 132°30'0 0.0
2018-Feb-09 22:46N 34°12' E 132°30'0 0.0
2018-Feb-09 22:30N 34°12' E 132°30'0 0.0
2018-Feb-09 22:00N 34°12' E 132°30'0 0.0
2018-Feb-09 21:30N 34°12' E 132°30'0 0.0
2018-Feb-09 21:00N 34°12' E 132°30'0 0.0
2018-Feb-09 20:30N 34°12' E 132°30'0 0.0
2018-Feb-09 20:00N 34°12' E 132°30'0 0.0
2018-Feb-09 19:00N 34°12' E 132°30'0 0.0
2018-Feb-09 18:30N 34°12' E 132°30'0 0.0
2018-Feb-09 17:30N 34°12' E 132°30'0 0.0
2018-Feb-09 15:30N 34°12' E 132°30'0 0.0
2018-Feb-09 15:00N 34°12' E 132°30'0 0.0
2018-Feb-09 14:30N 34°12' E 132°30'  
Track history (hours):
 
Tides and Currents Weather Stations Pressure Air Temp Water Temp Dewpoint Dewpoint Depression Visibility Wind Speed Wind Dir Waves Ship Positions

Hozan Maru

Last reported at 2018-Feb-19 13:59 UTC. Time now 2018-Feb-19 14:17 UTC.
Position N 34°44' E 134°46'.

Length 70 m; draft 4.8 m.

Type: Tanker. MMSI: 431501711.

Date/timePositionNaut miles runAvg speedWind from/ knotsBaromVisibWave heightAir tempDewpointWater temp
2018-Feb-19 13:59N 34°44' E 134°46'0 0.0
2018-Feb-19 13:24N 34°44' E 134°46'0 0.0
2018-Feb-19 12:52N 34°44' E 134°46'1 2.1
2018-Feb-19 12:30N 34°44' E 134°45'612.6
2018-Feb-19 12:00N 34°39' E 134°51'713.4
2018-Feb-19 11:30N 34°38' E 134°58'612.6
2018-Feb-19 11:00N 34°36' E 135°06'612.4
2018-Feb-19 10:31N 34°36' E 135°13'612.1
2018-Feb-19 10:00N 34°34' E 135°20'5 9.5
2018-Feb-19 09:30N 34°34' E 135°26'0 0.0
2018-Feb-19 09:00N 34°34' E 135°26'0 0.0
2018-Feb-19 08:30N 34°34' E 135°26'0 0.0
2018-Feb-19 08:00N 34°34' E 135°26'0 0.0
2018-Feb-19 07:30N 34°34' E 135°26'0 0.0
2018-Feb-19 07:00N 34°34' E 135°26'0 0.0
2018-Feb-19 06:30N 34°34' E 135°26'0 0.0
2018-Feb-19 06:00N 34°34' E 135°26'4 7.4
2018-Feb-19 05:30N 34°33' E 135°22'612.5
2018-Feb-19 05:00N 34°34' E 135°14'713.6
2018-Feb-19 04:30N 34°35' E 135°06'612.9
2018-Feb-19 04:00N 34°37' E 134°59'612.3
2018-Feb-19 03:30N 34°39' E 134°51'713.1
2018-Feb-19 03:00N 34°43' E 134°46'2 5.0
2018-Feb-19 02:31N 34°46' E 134°46'0 0.0
2018-Feb-19 02:00N 34°46' E 134°46'0 0.0
2018-Feb-19 01:30N 34°46' E 134°46'0 0.0
2018-Feb-19 01:00N 34°46' E 134°46'0 0.0
2018-Feb-19 00:25N 34°46' E 134°46'0 0.0
2018-Feb-19 00:00N 34°46' E 134°46'0 0.0
2018-Feb-18 23:30N 34°46' E 134°46'0 0.0
2018-Feb-18 23:00N 34°46' E 134°46'0 0.0
2018-Feb-18 22:30N 34°46' E 134°46'1 3.0
2018-Feb-18 22:00N 34°44' E 134°46'0 0.1
2018-Feb-18 21:25N 34°44' E 134°46'0 0.0
2018-Feb-18 20:57N 34°44' E 134°46'0 0.0
2018-Feb-18 20:29N 34°44' E 134°46'0 0.0
2018-Feb-18 19:59N 34°44' E 134°46'0 0.0
2018-Feb-18 19:30N 34°44' E 134°46'0 0.0
2018-Feb-18 18:59N 34°44' E 134°46'0 0.0
2018-Feb-18 18:29N 34°44' E 134°46'0 0.0
2018-Feb-18 17:56N 34°44' E 134°46'0 0.0
2018-Feb-18 17:28N 34°44' E 134°46'0 0.0
2018-Feb-18 16:58N 34°44' E 134°46'0 0.1
2018-Feb-18 16:30N 34°44' E 134°46'0 0.0
2018-Feb-18 16:00N 34°44' E 134°46'0 0.0
2018-Feb-18 15:30N 34°44' E 134°46'0 0.0
2018-Feb-18 15:00N 34°44' E 134°46'0 0.0
2018-Feb-18 14:30N 34°44' E 134°46'0 0.0
2018-Feb-18 14:00N 34°44' E 134°46'0 0.0
2018-Feb-18 13:30N 34°44' E 134°46'0 0.0
2018-Feb-18 13:00N 34°44' E 134°46'0 0.0
2018-Feb-18 12:30N 34°44' E 134°46'0 0.0
2018-Feb-18 12:00N 34°44' E 134°46'0 0.0
2018-Feb-18 11:30N 34°44' E 134°46'0 0.0
2018-Feb-18 10:59N 34°44' E 134°46'0 0.1
2018-Feb-18 10:19N 34°44' E 134°46'0 0.0
2018-Feb-18 09:56N 34°44' E 134°46'0 0.0
2018-Feb-18 09:30N 34°44' E 134°46'0 0.0
2018-Feb-18 09:00N 34°44' E 134°46'0 0.0
2018-Feb-18 08:30N 34°44' E 134°46'0 0.0
2018-Feb-18 08:00N 34°44' E 134°46'0 0.0
2018-Feb-18 07:30N 34°44' E 134°46'0 0.0
2018-Feb-18 07:00N 34°44' E 134°46'3 5.4
2018-Feb-18 06:29N 34°42' E 134°47'510.7
2018-Feb-18 06:00N 34°38' E 134°52'5 9.5
2018-Feb-18 05:30N 34°37' E 134°57'510.0
2018-Feb-18 05:01N 34°36' E 135°03'612.0
2018-Feb-18 04:30N 34°36' E 135°11'612.5
2018-Feb-18 04:00N 34°35' E 135°18'612.3
2018-Feb-18 03:30N 34°33' E 135°25'0 0.8
2018-Feb-18 03:00N 34°33' E 135°26'0 0.0
2018-Feb-18 02:31N 34°33' E 135°26'0 0.0
2018-Feb-18 02:00N 34°33' E 135°26'0 0.0
2018-Feb-18 01:30N 34°33' E 135°26'0 0.0
2018-Feb-18 01:01N 34°33' E 135°26'0 0.0
2018-Feb-18 00:29N 34°33' E 135°26'0 0.0
2018-Feb-18 00:00N 34°33' E 135°26'0 0.0
2018-Feb-17 23:30N 34°33' E 135°26'2 3.6
2018-Feb-17 23:00N 34°33' E 135°23'3 5.1
2018-Feb-17 22:30N 34°31' E 135°25'0 0.0
2018-Feb-17 22:00N 34°31' E 135°25'0 0.0
2018-Feb-17 21:31N 34°31' E 135°25'0 0.0
2018-Feb-17 21:00N 34°31' E 135°25'0 0.0
2018-Feb-17 20:30N 34°31' E 135°25'0 0.0
2018-Feb-17 20:00N 34°31' E 135°25'0 0.0
2018-Feb-17 19:30N 34°31' E 135°25'0 0.0
2018-Feb-17 19:00N 34°31' E 135°25'0 0.0
2018-Feb-17 18:29N 34°31' E 135°25'0 0.0
2018-Feb-17 18:01N 34°31' E 135°25'0 0.0
2018-Feb-17 17:30N 34°31' E 135°25'0 0.0
2018-Feb-17 17:00N 34°31' E 135°25'0 0.0
2018-Feb-17 16:30N 34°31' E 135°25'0 0.0
2018-Feb-17 16:00N 34°31' E 135°25'0 0.0
2018-Feb-17 15:30N 34°31' E 135°25'0 0.0
2018-Feb-17 15:00N 34°31' E 135°25'0 0.0
2018-Feb-17 14:30N 34°31' E 135°25'0 0.0
2018-Feb-17 14:00N 34°31' E 135°25'0 0.0
2018-Feb-17 13:30N 34°31' E 135°25'0 0.0
2018-Feb-17 13:00N 34°31' E 135°25'0 0.0
2018-Feb-17 12:30N 34°31' E 135°25'0 0.0
2018-Feb-17 12:00N 34°31' E 135°25'0 0.0
2018-Feb-17 11:31N 34°31' E 135°25'0 0.0
2018-Feb-17 11:00N 34°31' E 135°25'0 0.0
2018-Feb-17 10:30N 34°31' E 135°25'0 0.0
2018-Feb-17 10:00N 34°31' E 135°25'0 0.0
2018-Feb-17 09:30N 34°31' E 135°25'0 0.0
2018-Feb-17 08:58N 34°31' E 135°25'0 0.0
2018-Feb-17 08:30N 34°31' E 135°25'0 0.0
2018-Feb-17 08:00N 34°31' E 135°25'0 0.0
2018-Feb-17 07:31N 34°31' E 135°25'0 0.0
2018-Feb-17 07:01N 34°31' E 135°25'0 0.0
2018-Feb-17 06:31N 34°31' E 135°25'0 0.0
2018-Feb-17 06:00N 34°31' E 135°25'0 0.0
2018-Feb-17 05:30N 34°31' E 135°25'0 0.6
2018-Feb-17 05:00N 34°31' E 135°24'611.7
2018-Feb-17 04:30N 34°33' E 135°18'713.6
2018-Feb-17 04:00N 34°34' E 135°10'713.7
2018-Feb-17 03:30N 34°36' E 135°02'713.2
2018-Feb-17 03:00N 34°37' E 134°54'713.7
2018-Feb-17 02:30N 34°41' E 134°47'4 8.5
2018-Feb-17 02:00N 34°46' E 134°46'0 0.0
2018-Feb-17 01:29N 34°46' E 134°46'0 0.0
2018-Feb-17 01:00N 34°46' E 134°46'0 0.0
2018-Feb-17 00:30N 34°46' E 134°46'0 0.0
2018-Feb-17 00:00N 34°46' E 134°46'0 0.0
2018-Feb-16 23:30N 34°46' E 134°46'0 0.0
2018-Feb-16 22:56N 34°46' E 134°46'0 0.0
2018-Feb-16 22:30N 34°46' E 134°46'1 2.8
2018-Feb-16 22:00N 34°44' E 134°46'0 0.0
2018-Feb-16 21:30N 34°44' E 134°46'0 0.0
2018-Feb-16 21:00N 34°44' E 134°46'0 0.0
2018-Feb-16 20:30N 34°44' E 134°46'0 0.0
2018-Feb-16 18:42N 34°44' E 134°46'0 0.0
2018-Feb-16 18:23N 34°44' E 134°46'0 0.0
2018-Feb-16 17:57N 34°44' E 134°46'0 0.0
2018-Feb-16 17:30N 34°44' E 134°46'0 0.0
2018-Feb-16 17:00N 34°44' E 134°46'0 0.0
2018-Feb-16 16:30N 34°44' E 134°46'0 0.0
2018-Feb-16 15:56N 34°44' E 134°46'0 0.0
2018-Feb-16 15:30N 34°44' E 134°46'0 0.0
2018-Feb-16 14:58N 34°44' E 134°46'0 0.1
2018-Feb-16 14:25N 34°44' E 134°46'2 4.5
2018-Feb-16 14:00N 34°42' E 134°46'612.1
2018-Feb-16 13:30N 34°38' E 134°52'713.2
2018-Feb-16 13:00N 34°38' E 134°60'713.2
2018-Feb-16 12:30N 34°36' E 135°07'612.6
2018-Feb-16 12:00N 34°36' E 135°15'612.4
2018-Feb-16 11:30N 34°34' E 135°22'3 6.5
2018-Feb-16 11:00N 34°34' E 135°26'0 0.0
2018-Feb-16 10:30N 34°34' E 135°26'0 0.0
2018-Feb-16 10:00N 34°34' E 135°26'0 0.0
2018-Feb-16 09:30N 34°34' E 135°26'0 0.0
2018-Feb-16 09:00N 34°34' E 135°26'0 0.0
2018-Feb-16 08:30N 34°34' E 135°26'0 0.0
2018-Feb-16 08:00N 34°34' E 135°26'0 0.0
2018-Feb-16 07:30N 34°34' E 135°26'0 0.0
2018-Feb-16 07:00N 34°34' E 135°26'0 0.2
2018-Feb-16 06:30N 34°33' E 135°26'3 6.5
2018-Feb-16 06:00N 34°33' E 135°22'2 4.8
2018-Feb-16 05:30N 34°32' E 135°20'0 0.0
2018-Feb-16 05:00N 34°32' E 135°20'0 0.0
2018-Feb-16 04:30N 34°32' E 135°20'0 0.1
2018-Feb-16 04:00N 34°32' E 135°20'510.7
2018-Feb-16 03:30N 34°34' E 135°13'612.9
2018-Feb-16 03:00N 34°35' E 135°06'612.5
2018-Feb-16 02:30N 34°37' E 134°59'611.9
2018-Feb-16 02:00N 34°38' E 134°51'712.9
2018-Feb-16 01:30N 34°43' E 134°46'3 5.4
2018-Feb-16 01:00N 34°46' E 134°46'0 0.0
2018-Feb-16 00:31N 34°46' E 134°46'0 0.0
2018-Feb-16 00:00N 34°46' E 134°46'0 0.0
2018-Feb-15 23:31N 34°46' E 134°46'0 0.0
2018-Feb-15 23:01N 34°46' E 134°46'0 0.0
2018-Feb-15 22:30N 34°46' E 134°46'2 3.0
2018-Feb-15 22:00N 34°44' E 134°46'0 0.0
2018-Feb-15 20:20N 34°44' E 134°46'0 0.1
2018-Feb-15 19:35N 34°44' E 134°46'0 0.1
2018-Feb-15 19:30N 34°44' E 134°46'0 0.0
2018-Feb-15 18:51N 34°44' E 134°46'0 0.0
2018-Feb-15 18:30N 34°44' E 134°46'0 0.0
2018-Feb-15 18:00N 34°44' E 134°46'0 0.0
2018-Feb-15 17:30N 34°44' E 134°46'0 0.0
2018-Feb-15 16:55N 34°44' E 134°46'0 0.0
2018-Feb-15 16:24N 34°44' E 134°46'0 0.0
2018-Feb-15 16:00N 34°44' E 134°46'0 0.0
2018-Feb-15 15:13N 34°44' E 134°46'0 0.2
2018-Feb-15 14:53N 34°44' E 134°46'0 0.7
2018-Feb-15 14:20N 34°44' E 134°46'411.1
2018-Feb-15 14:01N 34°41' E 134°48'611.9
2018-Feb-15 13:31N 34°37' E 134°54'612.7
2018-Feb-15 13:00N 34°37' E 135°02'510.5
2018-Feb-15 12:30N 34°32' E 135°04'612.7
2018-Feb-15 12:01N 34°26' E 135°03'612.5
2018-Feb-15 11:30N 34°20' E 135°01'611.9
2018-Feb-15 11:00N 34°14' E 135°01'612.2
2018-Feb-15 10:30N 34°10' E 135°05'3 6.5
2018-Feb-15 10:00N 34°07' E 135°07'0 0.0
2018-Feb-15 09:30N 34°07' E 135°07'0 0.0
2018-Feb-15 09:00N 34°07' E 135°07'0 0.0
2018-Feb-15 08:30N 34°07' E 135°07'0 0.0
2018-Feb-15 08:00N 34°07' E 135°07'1 1.2
2018-Feb-15 07:30N 34°08' E 135°08'0 0.2
2018-Feb-15 07:01N 34°07' E 135°07'0 0.1
2018-Feb-15 06:30N 34°07' E 135°08'1 1.1
2018-Feb-15 06:00N 34°08' E 135°07'713.3
2018-Feb-15 05:30N 34°13' E 135°01'611.9
2018-Feb-15 05:00N 34°18' E 134°58'613.0
2018-Feb-15 04:31N 34°24' E 135°00'714.0
2018-Feb-15 04:01N 34°31' E 135°02'612.1
2018-Feb-15 03:30N 34°37' E 135°00'713.4
2018-Feb-15 03:00N 34°38' E 134°52'713.9
2018-Feb-15 02:29N 34°43' E 134°45'3 5.3
2018-Feb-15 02:00N 34°46' E 134°46'0 0.0
2018-Feb-15 01:28N 34°46' E 134°46'0 0.0
2018-Feb-15 00:58N 34°46' E 134°46'0 0.0
2018-Feb-15 00:30N 34°46' E 134°46'0 0.0
2018-Feb-15 00:00N 34°46' E 134°46'0 0.0
2018-Feb-14 23:30N 34°46' E 134°46'0 0.0
2018-Feb-14 22:58N 34°46' E 134°46'0 0.0
2018-Feb-14 22:30N 34°46' E 134°46'1 2.9
2018-Feb-14 22:00N 34°44' E 134°46'0 0.0
2018-Feb-14 21:30N 34°44' E 134°46'0 0.0
2018-Feb-14 20:13N 34°44' E 134°46'0 0.1
2018-Feb-14 20:00N 34°44' E 134°46'0 0.1
2018-Feb-14 19:30N 34°44' E 134°46'0 0.0
2018-Feb-14 18:27N 34°44' E 134°46'0 0.0
2018-Feb-14 17:56N 34°44' E 134°46'0 0.0
2018-Feb-14 17:30N 34°44' E 134°46'0 0.0
2018-Feb-14 17:00N 34°44' E 134°46'0 0.0
2018-Feb-14 16:29N 34°44' E 134°46'0 0.0
2018-Feb-14 16:00N 34°44' E 134°46'0 0.0
2018-Feb-14 15:29N 34°44' E 134°46'0 0.0
2018-Feb-14 14:59N 34°44' E 134°46'0 0.0
2018-Feb-14 14:29N 34°44' E 134°46'3 6.1
2018-Feb-14 14:00N 34°43' E 134°43'1112.3
2018-Feb-14 13:08N 34°42' E 134°30'212.2
2018-Feb-14 12:59N 34°42' E 134°28'612.0
2018-Feb-14 12:30N 34°39' E 134°22'1211.8
2018-Feb-14 11:31N 34°33' E 134°10'011.0
2018-Feb-14 11:30N 34°33' E 134°09'72 6.0
2018-Feb-13 23:38N 34°03' E 132°50'513.8
2018-Feb-13 23:16N 34°00' E 132°45'414.7
2018-Feb-13 22:59N 33°56' E 132°43'5 0.2
2018-Feb-12 22:28N 33°52' E 132°42'2 2.0
2018-Feb-12 21:37N 33°52' E 132°40'0 0.0
2018-Feb-12 21:29N 33°52' E 132°40'0 0.0
2018-Feb-12 21:00N 33°52' E 132°40'0 0.0
2018-Feb-12 20:30N 33°52' E 132°40'0 0.0
2018-Feb-12 20:01N 33°52' E 132°40'0 0.0
2018-Feb-12 19:30N 33°51' E 132°40'0 0.0
2018-Feb-12 18:59N 33°52' E 132°40'0 0.0
2018-Feb-12 18:30N 33°52' E 132°40'0 0.0
2018-Feb-12 17:58N 33°52' E 132°40'0 0.0
2018-Feb-12 17:31N 33°52' E 132°40'0 0.0
2018-Feb-12 17:00N 33°52' E 132°40'0 0.0
2018-Feb-12 16:30N 33°52' E 132°40'0 0.0
2018-Feb-12 16:00N 33°52' E 132°40'0 0.0
2018-Feb-12 15:30N 33°52' E 132°40'0 0.0
2018-Feb-12 15:00N 33°52' E 132°40'0 0.0
2018-Feb-12 14:31N 33°52' E 132°40'0 0.0
2018-Feb-12 13:57N 33°51' E 132°40'0 0.1
2018-Feb-12 13:31N 33°52' E 132°40'0 0.0
2018-Feb-12 13:00N 33°52' E 132°40'4 7.3
2018-Feb-12 12:26N 33°55' E 132°42'7311.3
2018-Feb-12 05:59N 34°27' E 134°02'1911.6
2018-Feb-12 04:18N 34°39' E 134°20'412.3
2018-Feb-12 03:59N 34°41' E 134°24'612.0
2018-Feb-12 03:28N 34°43' E 134°31'612.4
2018-Feb-12 03:00N 34°43' E 134°38'611.9
2018-Feb-12 02:30N 34°44' E 134°45'2 4.2
2018-Feb-12 02:00N 34°46' E 134°46'0 0.0
2018-Feb-12 01:30N 34°46' E 134°46'0 0.0
2018-Feb-12 01:00N 34°46' E 134°46'0 0.0
2018-Feb-12 00:30N 34°46' E 134°46'0 0.0
2018-Feb-12 00:00N 34°46' E 134°46'0 0.0
2018-Feb-11 23:30N 34°46' E 134°46'0 0.0
2018-Feb-11 22:56N 34°46' E 134°46'0 0.0
2018-Feb-11 22:30N 34°46' E 134°46'1 2.9
2018-Feb-11 22:00N 34°44' E 134°46'0 0.0
2018-Feb-11 21:30N 34°44' E 134°46'0 0.0
2018-Feb-11 21:00N 34°44' E 134°46'0 0.0
2018-Feb-11 20:30N 34°44' E 134°46'0 0.0
2018-Feb-11 20:00N 34°44' E 134°46'0 0.0
2018-Feb-11 19:30N 34°44' E 134°46'0 0.0
2018-Feb-11 18:59N 34°44' E 134°46'0 0.0
2018-Feb-11 18:30N 34°44' E 134°46'0 0.0
2018-Feb-11 18:00N 34°44' E 134°46'0 0.0
2018-Feb-11 17:27N 34°44' E 134°46'0 0.0
2018-Feb-11 17:00N 34°44' E 134°46'0 0.0
2018-Feb-11 16:30N 34°44' E 134°46'0 0.0
2018-Feb-11 16:00N 34°44' E 134°46'0 0.0
2018-Feb-11 15:30N 34°44' E 134°46'0 0.0
2018-Feb-11 15:00N 34°44' E 134°46'0 0.0
2018-Feb-11 14:30N 34°44' E 134°46'0 0.0
2018-Feb-11 14:00N 34°44' E 134°46'3 6.2
2018-Feb-11 13:30N 34°41' E 134°47'510.3
2018-Feb-11 13:00N 34°38' E 134°52'5 9.9
2018-Feb-11 12:29N 34°37' E 134°58'5 9.6
2018-Feb-11 12:00N 34°36' E 135°04'5 9.8
2018-Feb-11 11:31N 34°31' E 135°04'611.8
2018-Feb-11 11:00N 34°25' E 135°02'611.8
2018-Feb-11 10:30N 34°20' E 135°01'510.5
2018-Feb-11 10:00N 34°15' E 135°01'611.1
2018-Feb-11 09:30N 34°10' E 135°05'4 7.3
2018-Feb-11 09:00N 34°07' E 135°08'0 0.0
2018-Feb-11 08:30N 34°07' E 135°08'0 0.0
2018-Feb-11 08:00N 34°07' E 135°08'0 0.0
2018-Feb-11 07:30N 34°07' E 135°08'0 0.0
2018-Feb-11 07:00N 34°07' E 135°08'0 0.0
2018-Feb-11 06:30N 34°07' E 135°08'1 1.1
2018-Feb-11 06:00N 34°07' E 135°07'0 0.1
2018-Feb-11 05:15N 34°07' E 135°07'310.3
2018-Feb-11 05:00N 34°09' E 135°05'713.8
2018-Feb-11 04:30N 34°15' E 135°00'612.9
2018-Feb-11 04:00N 34°21' E 134°60'714.2
2018-Feb-11 03:30N 34°29' E 135°02'714.3
2018-Feb-11 03:00N 34°35' E 135°03'714.1
2018-Feb-11 02:30N 34°37' E 134°55'714.7
2018-Feb-11 02:00N 34°41' E 134°47'4 1.1
2018-Feb-10 21:54N 34°46' E 134°46'2 3.9
2018-Feb-10 21:30N 34°44' E 134°45'0 0.0
2018-Feb-10 20:55N 34°44' E 134°45'0 0.1
2018-Feb-10 20:25N 34°44' E 134°46'0 0.0
2018-Feb-10 19:55N 34°44' E 134°46'0 0.0
2018-Feb-10 19:25N 34°44' E 134°46'0 0.0
2018-Feb-10 18:55N 34°44' E 134°46'0 0.0
2018-Feb-10 18:25N 34°44' E 134°46'0 0.0
2018-Feb-10 17:55N 34°44' E 134°46'0 0.0
2018-Feb-10 17:25N 34°44' E 134°46'0 0.0
2018-Feb-10 16:55N 34°44' E 134°46'0 0.0
2018-Feb-10 16:25N 34°44' E 134°46'0 0.0
2018-Feb-10 15:55N 34°44' E 134°46'0 0.0
2018-Feb-10 15:28N 34°44' E 134°46'0 0.1
2018-Feb-10 14:55N 34°44' E 134°45'0 0.1
2018-Feb-10 14:25N 34°44' E 134°46'0 0.1
2018-Feb-10 13:50N 34°44' E 134°45'3 8.7
2018-Feb-10 13:30N 34°43' E 134°43'2912.8
2018-Feb-10 11:17N 34°33' E 134°10'7811.6
2018-Feb-10 04:34N 34°06' E 132°42'112.3
2018-Feb-10 04:30N 34°06' E 132°41'911.9
2018-Feb-10 03:47N 34°03' E 132°31'412.5
2018-Feb-10 03:27N 34°05' E 132°27'510.5
2018-Feb-10 03:00N 34°09' E 132°30'3 5.7
2018-Feb-10 02:31N 34°12' E 132°29'0 0.0
2018-Feb-10 02:00N 34°12' E 132°29'0 0.0
2018-Feb-10 01:30N 34°12' E 132°29'0 0.0
2018-Feb-10 01:00N 34°12' E 132°29'0 0.0
2018-Feb-10 00:31N 34°12' E 132°29'0 0.0
2018-Feb-09 23:58N 34°12' E 132°29'1 1.3
2018-Feb-09 23:30N 34°12' E 132°30'0 0.0
2018-Feb-09 23:00N 34°12' E 132°30'0 0.0
2018-Feb-09 22:46N 34°12' E 132°30'0 0.0
2018-Feb-09 22:30N 34°12' E 132°30'0 0.0
2018-Feb-09 22:00N 34°12' E 132°30'0 0.0
2018-Feb-09 21:30N 34°12' E 132°30'0 0.0
2018-Feb-09 21:00N 34°12' E 132°30'0 0.0
2018-Feb-09 20:30N 34°12' E 132°30'0 0.0
2018-Feb-09 20:00N 34°12' E 132°30'0 0.0
2018-Feb-09 19:00N 34°12' E 132°30'0 0.0
2018-Feb-09 18:30N 34°12' E 132°30'0 0.0
2018-Feb-09 17:30N 34°12' E 132°30'0 0.0
2018-Feb-09 15:30N 34°12' E 132°30'0 0.0
2018-Feb-09 15:00N 34°12' E 132°30'0 0.0
2018-Feb-09 14:30N 34°12' E 132°30'  

Dump ship's entire track history